Webcams

Webcam1&2         Webcam1 (Zeitraffer 2 Std.)        Webcam2 (Zeitraffer 2 Std.)

Webcam2 - Zeitraffer (die letzten zwei Stunden, Intervall: 10min)
cam2--20190619_170959M
cam2--20190619_171958M
cam2--20190619_172958M
cam2--20190619_173958M
cam2--20190619_174959M
cam2--20190619_175957M
cam2--20190619_180959M
cam2--20190619_181959M
cam2--20190619_182958M
cam2--20190619_183957M
cam2--20190619_184958M
cam2--20190619_185959M
cam2--20190619_190959M
01/13 
start stop bwd fwd

Webcam2 - Aktuell

Lokale Serverzeit 19:10 | 19.06.2019
Webcam-Lageplan

Flugwetter

[source: ADDS]
METAR
LOWL 191650Z AUTO 04007KT 9999 //////CB FEW190 28/13 Q1010 NOSIG =
TAF LOWL 191115Z 1912/2012 28004KT 9999 FEW050 TX30/1914Z TN16/2003Z TEMPO 1912/1917 VRB08KT FEW060CB BKN150 BECMG 2010/2012 FEW050CB
TAF
TAF LOWL 191115Z 1912/2012 28004KT 9999 FEW050 TX30/1914Z TN16/2003Z TEMPO 1912/1917 VRB08KT FEW060CB BKN150 BECMG 2010/2012 FEW050CB =